Time;durP1;ratioP1;P1;durP2;ratioP2;P2;SDS_P1;SDS_P2;PMS_P1;PMS_P2;Temp;Humidity;BMP_temperature;BMP_pressure;BME280_temperature;BME280_humidity;BME280_pressure;Samples;Min_cycle;Max_cycle;Signal;HPM_P1;HPM_P2
2021/03/14 00:01:15;;;;;;;89.32;50.78;;;;;;;29.48;52.77;101098.44;5068458;28;69816;-30
2021/03/14 00:03:45;;;;;;;84.13;47.53;;;;;;;29.55;53.22;101096.56;5066936;28;66139;-28
2021/03/14 00:06:15;;;;;;;85.45;49.85;;;;;;;29.63;53.38;101109.91;5068476;28;69173;-27
2021/03/14 00:08:45;;;;;;;87.88;45.75;;;;;;;29.68;52.95;101115.53;5071646;28;65832;-27
2021/03/14 00:11:15;;;;;;;81.80;45.72;;;;;;;29.72;53.16;101124.06;5072384;28;70623;-29
2021/03/14 00:13:44;;;;;;;81.38;45.95;;;;;;;29.76;53.66;101128.84;5070274;28;65987;-28
2021/03/14 00:16:14;;;;;;;81.05;45.53;;;;;;;29.74;53.31;101120.09;5068529;28;69248;-29
2021/03/14 00:18:44;;;;;;;78.55;43.88;;;;;;;29.84;53.38;101134.06;5070408;28;65882;-28
2021/03/14 00:21:15;;;;;;;74.88;43.47;;;;;;;29.88;53.31;101136.34;5058560;28;69524;-29
2021/03/14 00:23:45;;;;;;;78.38;43.50;;;;;;;29.91;53.51;101141.34;5069977;28;66211;-30
2021/03/14 00:26:15;;;;;;;71.57;40.70;;;;;;;29.92;54.29;101149.25;5064369;28;70018;-29
2021/03/14 00:28:45;;;;;;;65.47;40.60;;;;;;;29.97;53.85;101167.53;5071327;28;65930;-29
2021/03/14 00:31:15;;;;;;;69.45;40.90;;;;;;;30.01;53.95;101163.41;5057692;28;69861;-36
2021/03/14 00:33:44;;;;;;;65.22;39.33;;;;;;;30.03;53.87;101161.31;5070368;28;65285;-28
2021/03/14 00:36:14;;;;;;;76.38;40.80;;;;;;;30.03;53.95;101158.59;5071260;28;69890;-28
2021/03/14 00:38:51;;;;;;;72.82;40.30;;;;;;;30.06;54.94;101169.00;5054969;28;66130;-29
2021/03/14 00:41:22;;;;;;;68.22;40.10;;;;;;;30.10;54.74;101167.56;5073883;28;68847;-29
2021/03/14 00:43:52;;;;;;;63.92;38.85;;;;;;;30.13;54.56;101166.31;5075313;28;66600;-29
2021/03/14 00:46:22;;;;;;;68.45;39.28;;;;;;;30.16;55.01;101174.84;5068922;28;69899;-29
2021/03/14 00:48:55;;;;;;;74.95;39.97;;;;;;;30.14;55.15;101174.19;5065787;28;65927;-33
2021/03/14 00:51:26;;;;;;;62.15;37.10;;;;;;;30.16;55.25;101182.94;5072496;28;69926;-29
2021/03/14 00:53:56;;;;;;;70.25;37.50;;;;;;;30.20;55.31;101184.22;5075704;28;66916;-28
2021/03/14 00:56:28;;;;;;;77.38;39.63;;;;;;;30.22;55.10;101182.13;5054038;28;70017;-28
2021/03/14 00:59:05;;;;;;;69.32;39.78;;;;;;;30.15;55.88;101186.72;5057395;28;66022;-29
2021/03/14 01:01:35;;;;;;;63.97;38.97;;;;;;;30.19;55.42;101185.25;5060016;28;70588;-34
2021/03/14 01:04:05;;;;;;;72.28;36.95;;;;;;;30.20;55.89;101183.34;5076581;28;64944;-31
2021/03/14 01:06:36;;;;;;;65.20;34.40;;;;;;;30.25;55.51;101194.44;5076849;28;70683;-29
2021/03/14 01:09:07;;;;;;;;;;;;;;;30.31;55.34;101196.28;5057462;28;65726;-30
2021/03/14 01:11:37;;;;;;;56.90;34.83;;;;;;;30.37;55.28;101198.19;5035471;28;70386;-29
2021/03/14 01:14:20;;;;;;;69.65;36.72;;;;;;;30.37;55.68;101195.47;5058311;28;66633;-30
2021/03/14 01:17:26;;;;;;;70.18;35.90;;;;;;;30.38;55.79;101207.13;5061177;28;69965;-31
2021/03/14 01:19:56;;;;;;;66.45;36.40;;;;;;;30.41;55.50;101202.13;5049536;28;66069;-30
2021/03/14 01:22:26;;;;;;;64.97;35.00;;;;;;;30.40;55.47;101199.66;5071200;28;69565;-30
2021/03/14 01:24:56;;;;;;;55.72;35.15;;;;;;;30.41;55.44;101202.13;5055430;28;65204;-31
2021/03/14 01:27:26;;;;;;;60.40;35.15;;;;;;;30.42;55.95;101198.41;5055018;28;69797;-32
2021/03/14 01:29:56;;;;;;;65.38;35.15;;;;;;;30.47;55.68;101200.44;5079114;28;66042;-32
2021/03/14 01:32:26;;;;;;;61.63;34.75;;;;;;;30.50;55.89;101200.03;5060769;28;69435;-28
2021/03/14 01:34:56;;;;;;;61.75;34.22;;;;;;;30.51;55.77;101201.72;5073020;28;65448;-31
2021/03/14 01:37:26;;;;;;;59.53;35.17;;;;;;;30.54;55.72;101214.81;5050640;28;70852;-29
2021/03/14 01:39:56;;;;;;;55.72;35.25;;;;;;;30.56;55.64;101215.44;5075597;28;66263;-31
2021/03/14 01:42:30;;;;;;;52.15;34.78;;;;;;;30.56;55.35;101211.88;5078426;28;70141;-30
2021/03/14 01:45:01;;;;;;;60.47;35.35;;;;;;;30.58;55.11;101213.34;5076845;28;66167;-30
2021/03/14 01:47:37;;;;;;;56.38;34.20;;;;;;;30.61;55.43;101218.34;5053683;28;71142;-31
2021/03/14 01:50:10;;;;;;;62.42;33.20;;;;;;;30.59;55.35;101206.91;5046470;28;66884;-31
2021/03/14 01:52:41;;;;;;;57.40;34.78;;;;;;;30.68;55.63;101230.00;5036763;28;69980;-30
2021/03/14 01:55:12;;;;;;;51.63;33.42;;;;;;;30.69;55.51;101226.25;5076943;28;66406;-31
2021/03/14 01:57:44;;;;;;;58.63;33.65;;;;;;;30.63;55.36;101216.25;5077187;28;70096;-29
2021/03/14 02:00:20;;;;;;;59.47;34.90;;;;;;;30.76;54.70;101236.22;5075808;28;65450;-31
2021/03/14 02:02:50;;;;;;;57.00;33.90;;;;;;;30.77;55.15;101237.91;5073124;28;69977;-32
2021/03/14 02:05:21;;;;;;;70.00;34.45;;;;;;;30.79;55.29;101241.25;5073633;27;65163;-31
2021/03/14 02:07:53;;;;;;;55.35;34.13;;;;;;;30.82;55.58;101240.84;5077444;28;70010;-30
2021/03/14 02:10:27;;;;;;;;;;;;;;;30.84;54.97;101238.75;5069976;28;65788;-31
2021/03/14 02:13:01;;;;;;;59.80;33.92;;;;;;;30.87;55.41;101232.91;5058395;28;69992;-32
2021/03/14 02:15:34;;;;;;;57.60;35.30;;;;;;;30.86;55.33;101242.09;5075872;28;66597;-31
2021/03/14 02:18:06;;;;;;;60.63;35.50;;;;;;;30.85;55.59;101224.19;5074173;28;68597;-31
2021/03/14 02:20:38;;;;;;;65.75;34.58;;;;;;;30.84;55.74;101227.91;5068085;28;64682;-31
2021/03/14 02:23:20;;;;;;;57.80;33.78;;;;;;;30.91;55.38;101236.88;5070849;28;69971;-31
2021/03/14 02:25:51;;;;;;;;;;;;;;;30.93;55.08;101232.91;5072837;28;65858;-31
2021/03/14 02:28:22;;;;;;;57.55;32.72;;;;;;;30.95;55.40;101235.38;5070116;28;70562;-31
2021/03/14 02:30:53;;;;;;;49.00;31.77;;;;;;;30.94;54.79;101241.84;5066960;28;65174;-31
2021/03/14 02:33:28;;;;;;;47.88;31.10;;;;;;;30.89;55.16;101236.25;5076378;28;69963;-31
2021/03/14 02:35:59;;;;;;;52.78;31.35;;;;;;;30.91;54.33;101234.16;5072018;28;65347;-30
2021/03/14 02:38:29;;;;;;;46.17;30.73;;;;;;;30.92;54.34;101224.97;5071947;28;70144;-30
2021/03/14 02:41:00;;;;;;;50.72;31.73;;;;;;;30.88;54.55;101232.69;5070867;28;65162;-31
2021/03/14 02:43:32;;;;;;;46.95;29.70;;;;;;;30.88;54.53;101230.00;5069413;28;69204;-30
2021/03/14 02:46:02;;;;;;;;;;;;;;;30.91;54.48;101224.16;5071447;28;65269;-31
2021/03/14 02:48:32;;;;;;;41.65;27.85;;;;;;;30.94;54.27;101233.72;5058974;28;69244;-32
2021/03/14 02:51:04;;;;;;;41.90;28.10;;;;;;;30.88;54.24;101223.75;5069575;28;66070;-35
2021/03/14 02:53:34;;;;;;;38.75;27.63;;;;;;;30.88;54.21;101232.69;5073353;28;69729;-31
2021/03/14 02:56:06;;;;;;;38.13;27.17;;;;;;;30.82;54.36;101219.19;5069017;28;66612;-30
2021/03/14 02:58:37;;;;;;;33.70;26.17;;;;;;;30.90;53.66;101227.09;5073180;28;69777;-29
2021/03/14 03:01:09;;;;;;;31.17;25.73;;;;;;;30.89;54.04;101225.41;5076327;28;66224;-30
2021/03/14 03:03:39;;;;;;;36.33;24.70;;;;;;;30.90;53.87;101221.66;5055884;28;70052;-31
2021/03/14 03:06:12;;;;;;;32.03;25.73;;;;;;;30.93;53.73;101216.66;5072266;28;66699;-30
2021/03/14 03:08:45;;;;;;;29.77;23.95;;;;;;;30.93;53.09;101207.69;5074058;28;70447;-29
2021/03/14 03:11:17;;;;;;;28.95;24.23;;;;;;;30.91;53.10;101201.66;5071623;28;66142;-30
2021/03/14 03:13:50;;;;;;;33.63;25.20;;;;;;;30.89;53.43;101198.31;5066855;28;69627;-31
2021/03/14 03:16:24;;;;;;;38.55;24.15;;;;;;;30.92;53.19;101193.31;5056234;28;67568;-31
2021/03/14 03:18:55;;;;;;;30.65;24.02;;;;;;;30.93;52.96;101194.97;5075165;28;68837;-31
2021/03/14 03:21:27;;;;;;;29.35;24.17;;;;;;;30.95;52.68;101192.03;5071821;28;65502;-37
2021/03/14 03:23:57;;;;;;;31.63;24.25;;;;;;;30.95;52.78;101186.63;5030835;28;69631;-30
2021/03/14 03:26:28;;;;;;;30.93;23.33;;;;;;;30.95;52.73;101181.19;5071980;28;66221;-30
2021/03/14 03:28:58;;;;;;;26.83;21.98;;;;;;;30.97;52.97;101181.81;5073167;28;70535;-31
2021/03/14 03:31:28;;;;;;;24.00;21.10;;;;;;;30.99;52.84;101187.88;5074392;28;64360;-30
2021/03/14 03:33:59;;;;;;;26.10;23.13;;;;;;;31.00;52.29;101173.28;5074220;28;70672;-30
2021/03/14 03:36:28;;;;;;;28.20;22.80;;;;;;;31.01;52.29;101169.53;5076102;28;65534;-31
2021/03/14 03:39:00;;;;;;;27.67;22.42;;;;;;;30.94;52.38;101155.16;5028347;28;70218;-30
2021/03/14 03:41:45;;;;;;;25.38;21.73;;;;;;;31.01;52.58;101156.00;5071218;28;65381;-33
2021/03/14 03:44:18;;;;;;;27.00;21.52;;;;;;;30.98;52.19;101142.88;5073202;28;69275;-31
2021/03/14 03:46:51;;;;;;;27.70;21.85;;;;;;;31.08;52.08;101153.25;5070421;28;65040;-30
2021/03/14 03:49:31;;;;;;;25.45;21.33;;;;;;;31.07;51.82;101141.56;5076932;28;68804;-31
2021/03/14 03:52:02;;;;;;;30.38;20.35;;;;;;;31.10;51.81;101146.56;5076253;28;66001;-31
2021/03/14 03:54:35;;;;;;;22.52;20.15;;;;;;;31.11;51.78;101142.78;5074860;28;69050;-31
2021/03/14 03:57:07;;;;;;;22.48;19.15;;;;;;;31.10;51.65;101135.72;5076208;28;66229;-31
2021/03/14 03:59:38;;;;;;;23.38;20.83;;;;;;;31.13;51.62;101129.88;5073354;28;70645;-30
2021/03/14 04:02:10;;;;;;;22.73;20.63;;;;;;;31.15;52.01;101122.38;5076544;28;65209;-30
2021/03/14 04:04:45;;;;;;;24.25;20.65;;;;;;;31.16;51.58;101110.47;5073231;28;69549;-31
2021/03/14 04:07:16;;;;;;;21.13;18.92;;;;;;;31.21;51.86;101104.41;5076904;28;66006;-32
2021/03/14 04:09:46;;;;;;;24.85;20.52;;;;;;;31.20;51.89;101096.47;5075524;28;69270;-31
2021/03/14 04:12:17;;;;;;;22.23;19.08;;;;;;;31.20;51.52;101091.88;5055637;28;64284;-31
2021/03/14 04:14:48;;;;;;;28.60;20.63;;;;;;;31.25;51.57;101088.53;5075749;28;69006;-30
2021/03/14 04:17:18;;;;;;;21.92;19.63;;;;;;;31.26;50.96;101073.91;5076869;28;66047;-32
2021/03/14 04:19:54;;;;;;;21.55;19.13;;;;;;;31.27;51.08;101076.41;5062120;28;69945;-31
2021/03/14 04:22:24;;;;;;;22.67;19.70;;;;;;;31.27;50.88;101070.19;5073276;28;66024;-30
2021/03/14 04:24:57;;;;;;;19.55;17.75;;;;;;;31.27;51.52;101060.16;5064552;28;69181;-31
2021/03/14 04:27:28;;;;;;;27.73;19.35;;;;;;;31.28;51.19;101045.56;5057941;28;64410;-30
2021/03/14 04:29:59;;;;;;;20.77;18.70;;;;;;;31.34;50.99;101044.69;5078386;28;69244;-31
2021/03/14 04:32:30;;;;;;;;;;;;;;;31.33;50.74;101037.59;5061944;28;65793;-32
2021/03/14 04:35:01;;;;;;;21.55;19.33;;;;;;;31.43;50.67;101037.16;5079537;28;70355;-31
2021/03/14 04:37:33;;;;;;;22.67;18.63;;;;;;;31.47;50.60;101032.94;5081047;28;65985;-30
2021/03/14 04:40:30;;;;;;;21.27;18.77;;;;;;;31.42;50.57;101024.63;5053408;28;70837;-31
2021/03/14 04:43:01;;;;;;;22.35;18.38;;;;;;;31.45;50.83;101017.94;5073087;28;66016;-32
2021/03/14 04:45:34;;;;;;;20.45;18.33;;;;;;;31.46;50.29;101008.78;5078262;28;69972;-32
2021/03/14 04:48:06;;;;;;;20.88;18.77;;;;;;;31.46;50.31;101009.59;5078992;28;66111;-31
2021/03/14 04:50:38;;;;;;;20.20;18.17;;;;;;;31.50;50.16;101009.97;5078376;28;69922;-31
2021/03/14 04:53:10;;;;;;;18.77;17.00;;;;;;;31.44;50.36;100984.59;5077796;28;66387;-31
2021/03/14 04:55:43;;;;;;;19.30;17.65;;;;;;;31.52;50.22;100991.63;5080005;28;69810;-30
2021/03/14 04:58:21;;;;;;;18.20;16.33;;;;;;;31.52;50.30;100983.47;5072207;28;65616;-31
2021/03/14 05:00:53;;;;;;;19.08;17.45;;;;;;;31.58;50.27;100985.31;5076869;28;69296;-30
2021/03/14 05:03:25;;;;;;;19.00;16.65;;;;;;;31.60;50.29;100972.34;5079169;28;66052;-30
2021/03/14 05:05:58;;;;;;;18.73;16.75;;;;;;;31.63;49.95;100965.66;5075042;28;70608;-31
2021/03/14 05:08:29;;;;;;;17.88;16.48;;;;;;;31.67;50.08;100961.44;5078278;28;65203;-33
2021/03/14 05:11:00;;;;;;;;;;;;;;;31.67;49.41;100962.25;5077259;28;70567;-30
2021/03/14 05:13:33;;;;;;;19.60;16.58;;;;;;;31.73;49.69;100955.09;5077044;28;66565;-30
2021/03/14 05:16:03;;;;;;;;;;;;;;;31.71;49.38;100943.66;5078431;28;69791;-31
2021/03/14 05:18:36;;;;;;;18.00;16.25;;;;;;;31.76;49.35;100938.38;5074359;28;66267;-33
2021/03/14 05:21:11;;;;;;;18.13;16.50;;;;;;;31.75;49.28;100928.59;5063236;28;69747;-32
2021/03/14 05:23:44;;;;;;;17.20;15.77;;;;;;;31.79;49.27;100940.66;5064050;28;66182;-33
2021/03/14 05:26:16;;;;;;;18.17;15.77;;;;;;;31.78;49.69;100925.44;5059559;28;71579;-32
2021/03/14 05:28:48;;;;;;;17.53;15.87;;;;;;;31.83;49.36;100923.69;5053633;28;65904;-31
2021/03/14 05:31:30;;;;;;;17.15;15.65;;;;;;;31.85;49.04;100909.94;5054372;28;70504;-31
2021/03/14 05:34:08;;;;;;;17.30;15.82;;;;;;;31.88;48.84;100909.47;5051827;28;66035;-30
2021/03/14 05:36:40;;;;;;;17.65;16.20;;;;;;;31.90;49.24;100912.78;5065243;28;70185;-33
2021/03/14 05:39:12;;;;;;;18.25;16.65;;;;;;;31.96;49.00;100905.66;5056862;28;66233;-33
2021/03/14 05:41:44;;;;;;;16.20;14.82;;;;;;;31.94;49.06;100905.88;5046315;28;69324;-40
2021/03/14 05:44:17;;;;;;;18.05;16.15;;;;;;;31.97;48.90;100897.28;5054155;28;65630;-32
2021/03/14 05:46:48;;;;;;;17.98;15.65;;;;;;;32.01;49.05;100898.50;5029167;28;68582;-36
2021/03/14 05:49:19;;;;;;;16.55;15.15;;;;;;;31.98;48.01;100892.69;5067139;28;65416;-32
2021/03/14 05:51:52;;;;;;;17.55;15.85;;;;;;;31.93;46.41;100889.81;5044383;28;70486;-34
2021/03/14 05:54:23;;;;;;;16.38;14.77;;;;;;;31.86;45.68;100879.03;5065730;28;65201;-32
2021/03/14 05:56:55;;;;;;;15.30;14.07;;;;;;;31.74;45.13;100876.25;5036528;28;69613;-31
2021/03/14 05:59:27;;;;;;;15.98;14.63;;;;;;;31.63;44.77;100862.63;5047580;28;66918;-34
2021/03/14 06:02:00;;;;;;;15.10;13.75;;;;;;;31.57;43.89;100862.47;5052268;28;70274;-36
2021/03/14 06:04:33;;;;;;;15.02;13.68;;;;;;;31.53;43.60;100858.53;5063148;28;65041;-33
2021/03/14 06:07:05;;;;;;;14.52;13.55;;;;;;;31.50;42.34;100853.56;5061061;28;69018;-33
2021/03/14 06:09:35;;;;;;;14.68;13.57;;;;;;;31.46;41.91;100852.38;5066296;28;66094;-35
2021/03/14 06:12:15;;;;;;;15.75;14.18;;;;;;;31.43;40.37;100841.97;5072336;28;69381;-33
2021/03/14 06:14:47;;;;;;;14.23;13.23;;;;;;;31.39;40.91;100841.56;5068617;28;65380;-35
2021/03/14 06:17:18;;;;;;;14.20;13.00;;;;;;;31.34;40.99;100840.56;5075478;28;69240;-33
2021/03/14 06:19:49;;;;;;;13.88;12.75;;;;;;;31.35;40.47;100834.09;5056806;28;66716;-31
2021/03/14 06:22:40;;;;;;;14.95;13.73;;;;;;;31.32;39.59;100829.13;5075176;28;70087;-36
2021/03/14 06:25:26;;;;;;;13.80;12.80;;;;;;;31.28;39.97;100817.06;5077635;28;66143;-32
2021/03/14 06:27:57;;;;;;;14.07;12.65;;;;;;;31.27;39.17;100813.53;5052463;28;69898;-31
2021/03/14 06:30:31;;;;;;;12.17;11.47;;;;;;;31.20;39.01;100792.97;5071866;28;66522;-31
2021/03/14 06:33:15;;;;;;;12.43;11.68;;;;;;;31.25;37.91;100796.66;5074236;28;69221;-31
2021/03/14 06:35:51;;;;;;;12.63;11.73;;;;;;;31.20;39.23;100776.72;5075857;28;66671;-31
2021/03/14 06:38:28;;;;;;;14.07;12.77;;;;;;;31.28;37.71;100789.97;5074415;28;69010;-32
2021/03/14 06:41:05;;;;;;;13.77;12.55;;;;;;;31.28;37.38;100779.13;5071771;28;66046;-34
2021/03/14 06:43:43;;;;;;;12.70;11.80;;;;;;;31.28;37.61;100779.94;5071606;28;69737;-32
2021/03/14 06:46:27;;;;;;;12.38;11.57;;;;;;;31.24;37.40;100765.22;5075851;28;65731;-31
2021/03/14 06:49:13;;;;;;;13.00;11.93;;;;;;;31.21;36.07;100762.97;5072496;28;69545;-34
2021/03/14 06:51:55;;;;;;;12.73;11.85;;;;;;;31.30;37.09;100771.59;5039845;28;65931;-32
2021/03/14 06:54:45;;;;;;;12.93;12.00;;;;;;;31.26;37.33;100762.25;5072681;28;69343;-34
2021/03/14 06:57:21;;;;;;;12.48;11.48;;;;;;;31.24;37.15;100742.72;5061724;28;66107;-38
2021/03/14 06:59:59;;;;;;;12.50;11.23;;;;;;;31.32;37.04;100742.41;5058705;28;70148;-33
2021/03/14 07:02:32;;;;;;;11.90;11.10;;;;;;;31.37;37.47;100742.56;5046998;28;66501;-36
2021/03/14 07:05:05;;;;;;;13.25;12.15;;;;;;;31.38;37.61;100733.41;5038702;28;68743;-32
2021/03/14 07:07:42;;;;;;;16.95;12.65;;;;;;;31.43;36.90;100736.25;5070093;28;65611;-34
2021/03/14 07:10:18;;;;;;;13.32;12.07;;;;;;;31.50;37.21;100728.03;5044186;28;70885;-32
2021/03/14 07:12:50;;;;;;;12.93;11.90;;;;;;;31.51;36.99;100730.53;5071044;28;66690;-31
2021/03/14 07:15:23;;;;;;;13.20;11.75;;;;;;;31.52;37.05;100725.91;5065603;28;69795;-33
2021/03/14 07:17:57;;;;;;;13.27;12.27;;;;;;;31.51;37.04;100714.25;5067561;28;66484;-32
2021/03/14 07:20:30;;;;;;;13.65;12.45;;;;;;;31.56;36.27;100718.97;5074734;28;69708;-32
2021/03/14 07:23:09;;;;;;;11.50;10.80;;;;;;;31.62;36.07;100720.75;5071005;28;65467;-31
2021/03/14 07:25:45;;;;;;;12.05;11.25;;;;;;;31.64;35.85;100712.41;5076020;28;69258;-34
2021/03/14 07:28:17;;;;;;;20.75;12.30;;;;;;;31.64;36.36;100707.00;5075891;28;66887;-31
2021/03/14 07:30:49;;;;;;;;;;;;;;;31.72;35.29;100698.53;5076609;28;69021;-32
2021/03/14 07:33:21;;;;;;;11.83;10.90;;;;;;;31.75;36.12;100701.59;5077225;28;66139;-33
2021/03/14 07:35:52;;;;;;;12.73;11.68;;;;;;;31.78;35.81;100697.59;5077752;28;69548;-32
2021/03/14 07:38:24;;;;;;;12.07;11.20;;;;;;;31.79;35.44;100688.44;5077002;28;65580;-32
2021/03/14 07:40:55;;;;;;;13.07;12.02;;;;;;;31.84;35.60;100685.81;5072486;28;68887;-37
2021/03/14 07:43:29;;;;;;;14.00;12.25;;;;;;;31.87;35.28;100684.53;5075861;28;65966;-35
2021/03/14 07:46:02;;;;;;;12.63;11.30;;;;;;;31.88;35.26;100673.47;5077256;28;70650;-32
2021/03/14 07:48:34;;;;;;;;;;;;;;;31.90;35.11;100678.66;5073093;28;66908;-31
2021/03/14 07:51:06;;;;;;;12.80;11.57;;;;;;;31.95;35.21;100676.91;5064638;28;70692;-32
2021/03/14 07:53:53;;;;;;;12.60;11.70;;;;;;;31.90;35.21;100663.22;5075363;28;66110;-31
2021/03/14 07:56:24;;;;;;;13.10;12.02;;;;;;;31.97;35.30;100674.00;5076999;28;69717;-33
2021/03/14 07:58:57;;;;;;;13.27;12.25;;;;;;;31.94;35.13;100667.13;5076161;28;65866;-37
2021/03/14 08:01:31;;;;;;;;;;;;;;;32.00;35.19;100674.34;5076423;27;70934;-32
2021/03/14 08:04:03;;;;;;;13.20;11.93;;;;;;;32.01;34.81;100670.59;5050311;28;65615;-31
2021/03/14 08:06:52;;;;;;;13.88;12.68;;;;;;;31.98;34.60;100671.06;5076534;28;70773;-31
2021/03/14 08:09:46;;;;;;;13.88;12.32;;;;;;;32.03;34.56;100676.59;5074237;28;65853;-31
2021/03/14 08:12:27;;;;;;;15.20;12.88;;;;;;;32.03;34.30;100679.28;5072785;28;70610;-31
2021/03/14 08:14:58;;;;;;;14.18;12.95;;;;;;;32.05;34.96;100679.91;5069310;28;64752;-34
2021/03/14 08:17:37;;;;;;;15.23;13.68;;;;;;;32.04;35.03;100678.25;5041881;28;69753;-32
2021/03/14 08:20:12;;;;;;;17.52;14.02;;;;;;;32.14;34.99;100685.00;5077929;28;66177;-32
2021/03/14 08:22:45;;;;;;;15.43;14.13;;;;;;;32.07;34.59;100676.13;5059430;28;69353;-33
2021/03/14 08:25:23;;;;;;;16.25;14.70;;;;;;;32.16;35.34;100682.88;5075935;28;66673;-32
2021/03/14 08:28:20;;;;;;;16.45;14.68;;;;;;;32.19;35.09;100682.41;5073598;28;69277;-32
2021/03/14 08:31:00;;;;;;;16.02;14.68;;;;;;;32.16;35.17;100672.03;5063509;28;66209;-33
2021/03/14 08:33:50;;;;;;;16.35;14.15;;;;;;;32.18;34.72;100678.03;5061816;28;69934;-32
2021/03/14 08:36:43;;;;;;;16.95;14.32;;;;;;;32.19;34.97;100676.97;5061860;28;65843;-36
2021/03/14 08:39:23;;;;;;;16.23;14.63;;;;;;;32.24;34.98;100679.81;5048223;28;70073;-32
2021/03/14 08:42:03;;;;;;;20.48;14.55;;;;;;;32.20;34.87;100667.75;5049201;28;66515;-33
2021/03/14 08:44:47;;;;;;;14.93;13.52;;;;;;;32.25;34.54;100671.44;5063373;28;69421;-31
2021/03/14 08:47:35;;;;;;;18.42;14.02;;;;;;;32.31;34.95;100675.09;5063290;28;65571;-32
2021/03/14 08:50:15;;;;;;;18.75;15.23;;;;;;;32.30;34.61;100676.16;5040021;28;70041;-32
2021/03/14 08:53:09;;;;;;;16.52;14.85;;;;;;;32.31;34.92;100688.66;5075598;28;65384;-32
2021/03/14 08:56:00;;;;;;;16.10;14.43;;;;;;;32.39;35.84;100682.88;5053894;28;70471;-33
2021/03/14 08:58:38;;;;;;;34.75;17.35;;;;;;;32.54;38.86;100684.31;5060060;27;66279;-31
2021/03/14 09:01:16;;;;;;;35.60;18.92;;;;;;;32.76;40.54;100676.41;5051988;28;69969;-29
2021/03/14 09:04:17;;;;;;;49.58;18.00;;;;;;;32.89;41.58;100676.97;5025651;28;66149;-35
2021/03/14 09:07:19;;;;;;;34.45;19.17;;;;;;;33.13;42.12;100685.13;5039793;28;70703;-31
2021/03/14 09:10:15;;;;;;;32.20;18.25;;;;;;;33.23;43.12;100693.47;5056642;27;65900;-31
2021/03/14 09:13:00;;;;;;;42.45;18.73;;;;;;;33.39;42.66;100702.75;5064246;28;70973;-32
2021/03/14 09:15:57;;;;;;;34.65;18.30;;;;;;;33.49;41.92;100702.13;5041226;28;65368;-31
2021/03/14 09:18:49;;;;;;;35.65;17.05;;;;;;;33.54;42.37;100700.38;5050616;28;69768;-31
2021/03/14 09:21:23;;;;;;;38.15;16.73;;;;;;;33.61;42.39;100705.66;5049893;28;65706;-33
2021/03/14 09:24:01;;;;;;;30.23;16.27;;;;;;;33.65;42.42;100714.97;5056718;28;70561;-29
2021/03/14 09:26:37;;;;;;;33.20;17.05;;;;;;;33.70;42.57;100708.81;5045842;28;66021;-30
2021/03/14 09:29:51;;;;;;;28.67;15.60;;;;;;;33.67;43.47;100714.75;5057577;28;69960;-31
2021/03/14 09:32:30;;;;;;;23.58;15.05;;;;;;;33.74;42.54;100699.94;5075767;28;66908;-31
2021/03/14 09:35:23;;;;;;;27.65;15.30;;;;;;;33.84;42.80;100720.22;5040209;28;69303;-32
2021/03/14 09:38:01;;;;;;;34.60;15.05;;;;;;;33.89;42.18;100712.16;5074394;28;65139;-31
2021/03/14 09:40:48;;;;;;;23.55;14.13;;;;;;;33.88;42.24;100710.50;5077094;28;69823;-32
2021/03/14 09:43:30;;;;;;;24.88;14.80;;;;;;;33.92;42.05;100712.50;5043471;28;66227;-32
2021/03/14 09:46:31;;;;;;;26.70;13.80;;;;;;;33.95;42.12;100711.19;5077222;28;69759;-30
2021/03/14 09:49:16;;;;;;;29.05;14.38;;;;;;;34.00;42.45;100716.72;5057210;28;66326;-34
2021/03/14 09:51:58;;;;;;;28.95;15.05;;;;;;;33.99;42.23;100723.22;5074572;28;69214;-30
2021/03/14 09:54:35;;;;;;;20.25;13.68;;;;;;;34.03;42.18;100724.38;5057650;28;65922;-31
2021/03/14 09:57:10;;;;;;;27.95;13.55;;;;;;;34.06;41.97;100729.38;5073729;28;70521;-31
2021/03/14 09:59:49;;;;;;;18.55;13.07;;;;;;;34.07;42.25;100731.00;5058811;28;65917;-31
2021/03/14 10:02:41;;;;;;;;;;;;;;;34.07;42.23;100733.72;5068608;28;70550;-31
2021/03/14 10:05:39;;;;;;;31.27;11.50;;;;;;;34.08;42.70;100735.41;5077052;28;66547;-32
2021/03/14 10:08:25;;;;;;;18.23;11.15;;;;;;;34.00;42.72;100724.88;5070144;28;69884;-33
2021/03/14 10:11:10;;;;;;;23.15;11.38;;;;;;;34.08;42.80;100740.84;5077473;28;65723;-31
2021/03/14 10:13:45;;;;;;;15.05;10.80;;;;;;;34.05;42.97;100749.50;5058220;28;69854;-32
2021/03/14 10:16:19;;;;;;;24.92;11.32;;;;;;;34.04;43.12;100742.34;5063642;28;66118;-31
2021/03/14 10:18:59;;;;;;;19.60;11.38;;;;;;;34.13;43.48;100759.97;5048822;28;69239;-31
2021/03/14 10:21:34;;;;;;;20.80;10.48;;;;;;;34.13;43.58;100756.41;5053302;28;66767;-30
2021/03/14 10:24:26;;;;;;;23.13;10.73;;;;;;;34.16;43.51;100761.41;5049419;28;69915;-30
2021/03/14 10:27:08;;;;;;;29.02;10.07;;;;;;;34.19;43.17;100766.34;5068608;28;65380;-31
2021/03/14 10:30:00;;;;;;;18.95;10.30;;;;;;;34.10;43.06;100756.91;5056798;28;69838;-33
2021/03/14 10:33:02;;;;;;;21.75;11.25;;;;;;;34.20;42.88;100766.09;5057202;28;65135;-31
2021/03/14 10:35:39;;;;;;;24.65;10.90;;;;;;;34.19;43.00;100772.59;5072377;28;69090;-30
2021/03/14 10:38:22;;;;;;;26.83;11.27;;;;;;;34.14;43.18;100769.78;5055741;28;65212;-30
2021/03/14 10:41:17;;;;;;;23.65;11.18;;;;;;;34.10;42.97;100773.25;5050840;28;69163;-31
2021/03/14 10:44:00;;;;;;;25.98;11.13;;;;;;;34.15;42.79;100776.88;5050046;28;65514;-30
2021/03/14 10:46:50;;;;;;;25.27;9.70;;;;;;;34.08;43.05;100770.78;5044377;28;69849;-30
2021/03/14 10:49:31;;;;;;;18.17;10.88;;;;;;;34.09;43.22;100771.59;5056049;28;66203;-30
2021/03/14 10:52:15;;;;;;;26.90;9.88;;;;;;;33.99;43.23;100783.06;5036153;28;69376;-30
2021/03/14 10:54:51;;;;;;;23.65;9.95;;;;;;;33.94;43.32;100780.28;5073831;28;67004;-30
2021/03/14 10:57:37;;;;;;;27.77;9.73;;;;;;;33.91;43.03;100786.22;5058216;28;69847;-33
2021/03/14 11:00:09;;;;;;;23.17;9.65;;;;;;;33.89;43.45;100782.91;5064046;28;65352;-31
2021/03/14 11:02:48;;;;;;;16.42;9.52;;;;;;;33.79;43.87;100789.81;5058088;28;71828;-31
2021/03/14 11:05:26;;;;;;;27.92;10.63;;;;;;;33.76;43.98;100787.56;5054239;28;67045;-30
2021/03/14 11:08:03;;;;;;;24.38;11.02;;;;;;;33.73;44.07;100785.31;5045376;28;69337;-32
2021/03/14 11:10:56;;;;;;;23.63;10.63;;;;;;;33.55;44.37;100766.47;5054638;28;66950;-30
2021/03/14 11:13:44;;;;;;;28.52;10.85;;;;;;;33.68;44.41;100793.38;5072959;28;70285;-30
2021/03/14 11:16:37;;;;;;;35.05;10.05;;;;;;;33.71;44.40;100790.19;5019636;28;65203;-30
2021/03/14 11:19:18;;;;;;;27.80;9.02;;;;;;;33.68;44.42;100787.94;5031591;28;70521;-30
2021/03/14 11:21:56;;;;;;;14.45;9.02;;;;;;;33.72;44.47;100791.03;5072424;28;66571;-31
2021/03/14 11:24:39;;;;;;;18.38;8.57;;;;;;;33.72;44.57;100793.75;5041395;28;69216;-31
2021/03/14 11:27:09;;;;;;;28.77;10.07;;;;;;;33.70;45.01;100801.31;5052708;28;65801;-29
2021/03/14 11:29:39;;;;;;;33.25;10.80;;;;;;;33.68;45.31;100793.38;5067069;28;69061;-30
2021/03/14 11:32:18;;;;;;;37.72;10.30;;;;;;;33.70;45.35;100785.81;5055224;28;65310;-31
2021/03/14 11:35:16;;;;;;;19.35;10.30;;;;;;;33.70;45.36;100801.31;5053849;28;70177;-30
2021/03/14 11:37:45;;;;;;;19.92;9.88;;;;;;;33.63;45.22;100798.75;5073480;27;66384;-30
2021/03/14 11:40:56;;;;;;;22.73;9.68;;;;;;;33.57;45.68;100791.53;4988700;28;69232;-31
2021/03/14 11:43:48;;;;;;;17.17;9.60;;;;;;;33.47;45.97;100792.13;5039055;28;66155;-31
2021/03/14 11:46:22;;;;;;;22.73;8.80;;;;;;;33.44;46.73;100797.22;5058326;28;70113;-29
2021/03/14 11:49:10;;;;;;;20.25;9.23;;;;;;;33.47;47.08;100796.75;5051349;28;65019;-32
2021/03/14 11:51:40;;;;;;;20.65;8.45;;;;;;;33.44;47.38;100802.66;5072703;28;69206;-35
2021/03/14 11:54:17;;;;;;;16.52;7.70;;;;;;;33.44;47.88;100805.38;5054903;28;66151;-35